Terminal Aerodrome Forecast
Issued by NWS Charleston, WV

Current Version | Previous Version | Text Only | Print | Product List | Glossary On
Versions: 1 2 3 4 5 6 7 8 9 10 11 12 13 14 15 16 17 18 19 20 21
000
FTUS41 KRLX 271740
TAFHTS
TAF
KHTS 271740Z 2718/2818 22005KT P6SM BKN024 OVC090
     FM272000 24006KT P6SM VCTS BKN035CB
      TEMPO 2721/2723 2SM TSRA OVC040CB
     FM272300 24007KT P6SM VCTS BKN040CB
     FM280200 VRB03KT P6SM BKN070
     FM280900 00000KT P6SM BKN027
     FM281200 19006KT P6SM BKN015
     FM281600 18007KT 4SM SHRA VCTS OVC025CB=

USA.gov is the U.S. government's official web portal to all federal, state and local government web resources and services.